Time;durP1;ratioP1;P1;durP2;ratioP2;P2;SDS_P1;SDS_P2;PMS_P1;PMS_P2;Temp;Humidity;BMP_temperature;BMP_pressure;BME280_temperature;BME280_humidity;BME280_pressure;Samples;Min_cycle;Max_cycle;Signal;HPM_P1;HPM_P2
2022/12/09 00:02:07;;;;;;;20.20;18.40;;;4.50;99.90;;;;;;5099370;28;20554;-48
2022/12/09 00:04:33;;;;;;;20.33;18.53;;;4.50;99.90;;;;;;5098867;28;20228;-48
2022/12/09 00:06:58;;;;;;;20.57;18.60;;;4.50;99.90;;;;;;5098611;28;20180;-48
2022/12/09 00:09:24;;;;;;;20.73;18.97;;;4.50;99.90;;;;;;5097499;28;20509;-58
2022/12/09 00:11:51;;;;;;;20.90;19.00;;;4.50;99.90;;;;;;5097647;28;20903;-52
2022/12/09 00:14:17;;;;;;;20.67;18.77;;;4.50;99.90;;;;;;5099063;28;20232;-49
2022/12/09 00:16:43;;;;;;;21.85;19.95;;;4.50;99.90;;;;;;5097041;28;20232;-45
2022/12/09 00:19:09;;;;;;;20.13;18.40;;;4.50;99.90;;;;;;5097451;28;20180;-48
2022/12/09 00:21:35;;;;;;;20.50;18.60;;;4.50;99.90;;;;;;5098767;28;20233;-50
2022/12/09 00:24:06;;;;;;;21.57;19.70;;;4.50;99.90;;;;;;5098583;28;20449;-56
2022/12/09 00:26:32;;;;;;;21.67;19.77;;;4.50;99.90;;;;;;5099566;28;20412;-50
2022/12/09 00:28:58;;;;;;;22.30;20.20;;;4.50;99.90;;;;;;5102305;28;20188;-48
2022/12/09 00:31:27;;;;;;;21.60;19.63;;;4.50;99.90;;;;;;5103183;28;20175;-53
2022/12/09 00:33:56;;;;;;;21.83;19.92;;;4.50;99.90;;;;;;5102399;28;20204;-50
2022/12/09 00:36:22;;;;;;;21.33;19.52;;;4.50;99.90;;;;;;5102672;28;20175;-53
2022/12/09 00:38:49;;;;;;;21.83;19.92;;;4.50;99.90;;;;;;5103618;28;20237;-51
2022/12/09 00:41:15;;;;;;;21.30;19.50;;;4.50;99.90;;;;;;5103227;28;20488;-48
2022/12/09 00:43:42;;;;;;;22.20;20.10;;;4.50;99.90;;;;;;5101471;28;20184;-53
2022/12/09 00:46:09;;;;;;;20.92;19.13;;;4.50;99.90;;;;;;5101829;28;20298;-47
2022/12/09 00:48:37;;;;;;;22.73;20.63;;;4.50;99.90;;;;;;5101526;28;20194;-54
2022/12/09 00:51:04;;;;;;;21.27;19.48;;;4.50;99.90;;;;;;5101530;28;20477;-58
2022/12/09 00:53:30;;;;;;;22.35;20.15;;;4.50;99.90;;;;;;5101316;28;20207;-52
2022/12/09 00:55:55;;;;;;;21.40;19.50;;;4.40;99.90;;;;;;5101952;28;20637;-48
2022/12/09 00:58:21;;;;;;;21.07;19.20;;;4.40;99.90;;;;;;5101371;28;20202;-53
2022/12/09 01:00:47;;;;;;;19.97;18.17;;;4.40;99.90;;;;;;5101239;28;20207;-49
2022/12/09 01:03:15;;;;;;;19.90;18.20;;;4.40;99.90;;;;;;5101612;28;20280;-53
2022/12/09 01:05:41;;;;;;;20.80;19.00;;;4.40;99.90;;;;;;5100756;28;20190;-52
2022/12/09 01:08:08;;;;;;;20.35;18.45;;;4.40;99.90;;;;;;5100168;28;20418;-52
2022/12/09 01:10:34;;;;;;;20.23;18.50;;;4.40;99.90;;;;;;5101585;28;20676;-53
2022/12/09 01:12:59;;;;;;;21.13;19.23;;;4.50;99.90;;;;;;5101680;27;20207;-49
2022/12/09 01:15:25;;;;;;;21.50;19.50;;;4.50;99.90;;;;;;5100949;28;20429;-52
2022/12/09 01:17:51;;;;;;;21.80;19.80;;;4.50;99.90;;;;;;5101008;28;20219;-57
2022/12/09 01:20:16;;;;;;;20.53;18.63;;;4.40;99.90;;;;;;5100589;28;20183;-48
2022/12/09 01:22:42;;;;;;;20.60;18.70;;;4.40;99.90;;;;;;5101322;28;20179;-51
2022/12/09 01:25:08;;;;;;;20.37;18.53;;;4.30;99.90;;;;;;5100541;28;20210;-58
2022/12/09 01:27:34;;;;;;;20.87;18.90;;;4.20;99.90;;;;;;5101120;28;20188;-54
2022/12/09 01:29:59;;;;;;;19.73;18.03;;;4.10;99.90;;;;;;5101211;28;20464;-48
2022/12/09 01:32:25;;;;;;;19.73;18.07;;;4.00;99.90;;;;;;5101417;28;20238;-50
2022/12/09 01:34:50;;;;;;;19.70;18.00;;;4.00;99.90;;;;;;5100320;28;20264;-53
2022/12/09 01:37:16;;;;;;;18.47;16.97;;;3.90;99.90;;;;;;5101495;28;20258;-54
2022/12/09 01:39:41;;;;;;;20.20;18.47;;;4.00;99.90;;;;;;5098291;28;20214;-49
2022/12/09 01:42:17;;;;;;;19.47;17.97;;;4.00;99.90;;;;;;5100625;28;20180;-49
2022/12/09 01:45:29;;;;;;;18.63;17.13;;;3.90;99.90;;;;;;5099282;28;20691;-55
2022/12/09 01:48:23;;;;;;;18.80;17.30;;;3.90;99.90;;;;;;5100893;28;20212;-48
2022/12/09 01:51:02;;;;;;;18.13;16.77;;;3.90;99.90;;;;;;5099869;28;20176;-47
2022/12/09 01:53:33;;;;;;;17.95;16.55;;;4.00;99.90;;;;;;5099901;28;20207;-53
2022/12/09 01:56:04;;;;;;;17.88;16.42;;;3.90;99.90;;;;;;5099956;28;20224;-53
2022/12/09 01:58:30;;;;;;;18.95;17.15;;;3.90;99.90;;;;;;5100082;28;20183;-49
2022/12/09 02:00:55;;;;;;;18.03;16.53;;;3.90;99.90;;;;;;5100443;28;20184;-49
2022/12/09 02:03:21;;;;;;;18.13;16.77;;;3.90;99.90;;;;;;5100409;28;20444;-50
2022/12/09 02:05:47;;;;;;;17.80;16.40;;;3.90;99.90;;;;;;5100142;28;20180;-48
2022/12/09 02:08:16;;;;;;;18.55;17.05;;;4.00;99.90;;;;;;5099581;28;20184;-47
2022/12/09 02:11:24;;;;;;;18.05;16.55;;;4.00;99.90;;;;;;5100452;28;20180;-50
2022/12/09 02:14:18;;;;;;;17.67;16.35;;;3.90;99.90;;;;;;5063371;28;20512;-49
2022/12/09 02:17:01;;;;;;;16.75;15.52;;;4.00;99.90;;;;;;5100520;28;20223;-58
2022/12/09 02:19:46;;;;;;;16.88;15.48;;;4.00;99.90;;;;;;5097656;28;20176;-49
2022/12/09 02:22:19;;;;;;;17.25;15.85;;;4.00;99.90;;;;;;5100193;28;20197;-51
2022/12/09 02:25:02;;;;;;;18.27;16.75;;;4.00;99.90;;;;;;5099010;28;20653;-53
2022/12/09 02:27:57;;;;;;;18.58;17.17;;;4.00;99.90;;;;;;5098582;28;20206;-53
2022/12/09 02:30:32;;;;;;;17.80;16.38;;;4.00;99.90;;;;;;5099389;28;20277;-52
2022/12/09 02:33:38;;;;;;;18.55;16.90;;;4.00;99.90;;;;;;5100145;28;20211;-53
2022/12/09 02:36:14;;;;;;;17.77;16.40;;;4.00;99.90;;;;;;5017091;28;20186;-54
2022/12/09 02:38:42;;;;;;;18.00;16.60;;;4.10;99.90;;;;;;5016695;28;20319;-52
2022/12/09 02:41:14;;;;;;;18.42;16.85;;;4.10;99.90;;;;;;5063414;28;20642;-50
2022/12/09 02:43:45;;;;;;;18.92;17.38;;;4.10;99.90;;;;;;5099632;28;20530;-51
2022/12/09 02:46:12;;;;;;;18.20;16.60;;;4.10;99.90;;;;;;5098054;28;20184;-51
2022/12/09 02:48:42;;;;;;;17.58;16.17;;;4.10;99.90;;;;;;5096925;28;20188;-54
2022/12/09 02:51:13;;;;;;;19.35;17.70;;;4.20;99.90;;;;;;5098734;28;20179;-51
2022/12/09 02:53:40;;;;;;;17.50;16.15;;;4.20;99.90;;;;;;5098096;28;20535;-51
2022/12/09 02:56:07;;;;;;;17.55;16.30;;;4.20;99.90;;;;;;5099736;28;20710;-51
2022/12/09 02:58:33;;;;;;;18.40;16.95;;;4.20;99.90;;;;;;5098722;28;20698;-49
2022/12/09 03:00:59;;;;;;;18.60;17.00;;;4.10;99.90;;;;;;5099028;28;20356;-51
2022/12/09 03:03:27;;;;;;;17.60;16.20;;;4.10;99.90;;;;;;5097906;28;20214;-53
2022/12/09 03:06:03;;;;;;;18.35;16.85;;;4.10;99.90;;;;;;5097064;28;20349;-56
2022/12/09 03:08:41;;;;;;;18.40;16.85;;;4.10;99.90;;;;;;5099648;28;20187;-53
2022/12/09 03:11:12;;;;;;;19.13;15.90;;;4.10;99.90;;;;;;5099162;28;20183;-50
2022/12/09 03:13:41;;;;;;;17.88;16.48;;;4.10;99.90;;;;;;5097911;28;20215;-50
2022/12/09 03:16:14;;;;;;;17.77;16.27;;;4.00;99.90;;;;;;5098962;28;20219;-51
2022/12/09 03:18:44;;;;;;;17.75;16.23;;;4.00;99.90;;;;;;5099135;28;20214;-52
2022/12/09 03:21:12;;;;;;;18.10;16.60;;;4.10;99.90;;;;;;5098447;28;20172;-55
2022/12/09 03:23:38;;;;;;;18.15;16.55;;;4.00;99.90;;;;;;5097673;28;20275;-53
2022/12/09 03:26:05;;;;;;;18.57;16.90;;;3.90;99.90;;;;;;5099471;28;20180;-54
2022/12/09 03:28:45;;;;;;;17.95;16.45;;;3.90;99.90;;;;;;5099345;28;20441;-51
2022/12/09 03:31:16;;;;;;;17.70;16.30;;;3.90;99.90;;;;;;5098744;28;20673;-51
2022/12/09 03:33:45;;;;;;;17.45;16.00;;;3.90;99.90;;;;;;5098753;28;20203;-52
2022/12/09 03:36:13;;;;;;;18.00;16.50;;;4.00;99.90;;;;;;5098132;28;20183;-51
2022/12/09 03:38:41;;;;;;;18.77;17.25;;;3.90;99.90;;;;;;5098767;28;20418;-50
2022/12/09 03:41:16;;;;;;;18.02;16.58;;;3.90;99.90;;;;;;5099097;28;20182;-52
2022/12/09 03:43:47;;;;;;;17.85;16.38;;;4.00;99.90;;;;;;5098979;28;20731;-56
2022/12/09 03:46:13;;;;;;;19.15;17.45;;;3.90;99.90;;;;;;5099988;28;20534;-58
2022/12/09 03:48:39;;;;;;;18.07;16.57;;;3.90;99.90;;;;;;5097420;28;20264;-53
2022/12/09 03:51:33;;;;;;;17.53;16.03;;;3.90;99.90;;;;;;5099356;28;20188;-55
2022/12/09 03:54:14;;;;;;;17.52;16.10;;;4.00;99.90;;;;;;5092290;28;20204;-53
2022/12/09 03:56:46;;;;;;;18.52;16.88;;;3.90;99.90;;;;;;5098823;28;20176;-55
2022/12/09 03:59:14;;;;;;;19.20;17.50;;;3.80;99.90;;;;;;5097700;28;20200;-48
2022/12/09 04:01:42;;;;;;;17.48;15.88;;;3.80;99.90;;;;;;5100158;28;20650;-52
2022/12/09 04:04:08;;;;;;;18.00;16.60;;;3.90;99.90;;;;;;5103524;27;20564;-49
2022/12/09 04:06:34;;;;;;;17.98;16.38;;;3.90;99.90;;;;;;5103297;28;20591;-54
2022/12/09 04:09:00;;;;;;;18.23;16.75;;;3.90;99.90;;;;;;5103556;28;20350;-56
2022/12/09 04:11:25;;;;;;;18.63;17.00;;;4.00;99.90;;;;;;5103340;28;20640;-52
2022/12/09 04:13:51;;;;;;;18.30;16.77;;;4.00;99.90;;;;;;5103237;28;20199;-50
2022/12/09 04:16:16;;;;;;;18.50;16.97;;;4.00;99.90;;;;;;5102229;28;20231;-52
2022/12/09 04:18:42;;;;;;;18.27;16.80;;;4.10;99.90;;;;;;5101557;28;20180;-52
2022/12/09 04:21:10;;;;;;;18.40;16.63;;;4.10;99.90;;;;;;5103117;28;20212;-52
2022/12/09 04:23:36;;;;;;;19.73;18.02;;;4.10;99.90;;;;;;5101572;28;20833;-50
2022/12/09 04:26:02;;;;;;;18.47;16.90;;;4.10;99.90;;;;;;5101944;28;20199;-54
2022/12/09 04:28:28;;;;;;;17.00;15.70;;;4.10;99.90;;;;;;5102537;28;20179;-51
2022/12/09 04:30:54;;;;;;;18.50;16.80;;;4.10;99.90;;;;;;5103331;28;20192;-52
2022/12/09 04:33:19;;;;;;;18.17;16.47;;;4.10;99.90;;;;;;5102429;28;21140;-48
2022/12/09 04:35:45;;;;;;;17.37;15.87;;;4.10;99.90;;;;;;5103627;28;20683;-56
2022/12/09 04:38:10;;;;;;;18.60;17.00;;;4.10;99.90;;;;;;5102892;28;20218;-50
2022/12/09 04:40:37;;;;;;;16.67;15.17;;;4.10;99.90;;;;;;5102736;28;20172;-53
2022/12/09 04:43:02;;;;;;;18.80;17.20;;;4.10;99.90;;;;;;5101369;28;20173;-53
2022/12/09 04:45:28;;;;;;;18.10;16.60;;;4.10;99.90;;;;;;5102599;28;20191;-50
2022/12/09 04:47:53;;;;;;;19.07;17.20;;;4.10;99.90;;;;;;5101912;28;20190;-51
2022/12/09 04:50:19;;;;;;;17.40;16.00;;;4.10;99.90;;;;;;5101288;28;20219;-52
2022/12/09 04:52:45;;;;;;;17.10;15.70;;;4.00;99.90;;;;;;5100017;28;20310;-48
2022/12/09 04:55:12;;;;;;;17.93;16.33;;;3.90;99.90;;;;;;5100394;28;20190;-51
2022/12/09 04:57:38;;;;;;;18.35;16.55;;;3.80;99.90;;;;;;5100830;28;20528;-53
2022/12/09 05:00:06;;;;;;;17.67;16.07;;;3.90;99.90;;;;;;5101027;28;20209;-54
2022/12/09 05:02:31;;;;;;;18.00;16.50;;;3.90;99.90;;;;;;5101335;28;20428;-51
2022/12/09 05:05:00;;;;;;;18.50;17.00;;;3.90;99.90;;;;;;5100655;28;20184;-55
2022/12/09 05:07:26;;;;;;;18.55;16.95;;;3.90;99.90;;;;;;5101170;28;20192;-52
2022/12/09 05:09:52;;;;;;;19.08;17.38;;;3.90;99.90;;;;;;5101193;28;20184;-52
2022/12/09 05:12:17;;;;;;;20.10;18.30;;;3.90;99.90;;;;;;5100443;28;20196;-52
2022/12/09 05:14:43;;;;;;;18.53;16.80;;;3.90;99.90;;;;;;5100895;28;20208;-49
2022/12/09 05:17:08;;;;;;;18.90;17.20;;;3.80;99.90;;;;;;5100365;28;20223;-53
2022/12/09 05:19:34;;;;;;;18.83;17.23;;;3.90;99.90;;;;;;5101210;28;20184;-53
2022/12/09 05:21:59;;;;;;;20.60;18.80;;;3.90;99.90;;;;;;5102252;28;21251;-55
2022/12/09 05:24:25;;;;;;;18.97;17.17;;;3.90;99.90;;;;;;5100215;28;20184;-52
2022/12/09 05:26:51;;;;;;;19.20;17.40;;;4.00;99.90;;;;;;5100910;28;20188;-52
2022/12/09 05:29:16;;;;;;;21.10;19.10;;;4.00;99.90;;;;;;5100577;28;20721;-49
2022/12/09 05:31:42;;;;;;;20.20;18.50;;;4.00;99.90;;;;;;5100399;28;20191;-57
2022/12/09 05:34:08;;;;;;;20.17;18.40;;;4.00;99.90;;;;;;5100695;28;20219;-52
2022/12/09 05:36:33;;;;;;;20.57;18.67;;;4.00;99.90;;;;;;5099232;28;20663;-49
2022/12/09 05:38:59;;;;;;;20.20;18.30;;;4.00;99.90;;;;;;5100443;28;20291;-46
2022/12/09 05:41:25;;;;;;;20.60;18.50;;;4.10;99.90;;;;;;5099937;28;20189;-52
2022/12/09 05:43:50;;;;;;;22.03;19.90;;;4.10;99.90;;;;;;5100582;28;20184;-52
2022/12/09 05:46:17;;;;;;;20.50;18.70;;;4.10;99.90;;;;;;5100555;28;20191;-54
2022/12/09 05:48:42;;;;;;;21.17;19.17;;;4.20;99.90;;;;;;5101185;28;20808;-50
2022/12/09 05:51:30;;;;;;;20.03;17.93;;;4.20;99.90;;;;;;5100865;28;20201;-51
2022/12/09 05:54:00;;;;;;;20.10;18.15;;;4.20;99.90;;;;;;5098101;28;20215;-50
2022/12/09 05:56:26;;;;;;;20.52;18.50;;;4.20;99.90;;;;;;5100680;28;20541;-55
2022/12/09 05:58:52;;;;;;;21.20;19.13;;;4.20;99.90;;;;;;5099927;28;20194;-47
2022/12/09 06:01:18;;;;;;;21.05;18.65;;;4.20;99.90;;;;;;5099680;28;20430;-51
2022/12/09 06:03:48;;;;;;;21.58;19.35;;;4.20;99.90;;;;;;5099647;28;20179;-54
2022/12/09 06:06:16;;;;;;;20.05;18.10;;;4.20;99.90;;;;;;5100617;28;20270;-52
2022/12/09 06:08:43;;;;;;;21.73;18.38;;;4.20;99.90;;;;;;5100479;28;20468;-53
2022/12/09 06:11:12;;;;;;;20.08;18.08;;;4.20;99.90;;;;;;5100781;28;20310;-49
2022/12/09 06:13:38;;;;;;;21.70;19.55;;;4.10;99.90;;;;;;5099849;28;20214;-54
2022/12/09 06:16:05;;;;;;;20.83;18.83;;;4.00;99.90;;;;;;5099847;28;20220;-50
2022/12/09 06:18:31;;;;;;;21.73;19.45;;;3.90;99.90;;;;;;5085436;28;20490;-56
2022/12/09 06:20:57;;;;;;;22.17;19.98;;;3.90;99.90;;;;;;5100511;28;20263;-53
2022/12/09 06:23:23;;;;;;;22.90;19.47;;;3.90;99.90;;;;;;5099506;28;20187;-48
2022/12/09 06:25:49;;;;;;;21.40;19.30;;;3.90;99.90;;;;;;5099459;28;20429;-48
2022/12/09 06:28:14;;;;;;;22.50;20.20;;;3.80;99.90;;;;;;5100299;28;20251;-53
2022/12/09 06:30:40;;;;;;;22.57;20.27;;;3.80;99.90;;;;;;5100549;28;20453;-49
2022/12/09 06:33:06;;;;;;;21.50;19.20;;;3.80;99.90;;;;;;5099018;28;20885;-51
2022/12/09 06:35:31;;;;;;;21.03;18.83;;;3.70;99.90;;;;;;5101333;28;20616;-55
2022/12/09 06:37:57;;;;;;;23.40;20.97;;;3.70;99.90;;;;;;5100357;28;20183;-53
2022/12/09 06:40:23;;;;;;;23.73;21.13;;;3.80;99.90;;;;;;5100735;28;20183;-51
2022/12/09 06:42:51;;;;;;;24.40;21.80;;;3.80;99.90;;;;;;5099846;28;20272;-53
2022/12/09 06:45:18;;;;;;;24.42;21.30;;;3.80;99.90;;;;;;5100106;28;20175;-51
2022/12/09 06:47:44;;;;;;;24.73;22.15;;;3.80;99.90;;;;;;5099690;28;20275;-54
2022/12/09 06:50:11;;;;;;;25.08;22.42;;;3.80;99.90;;;;;;5099773;28;20353;-50
2022/12/09 06:52:38;;;;;;;23.98;21.00;;;3.80;99.90;;;;;;5099758;28;20191;-49
2022/12/09 06:55:05;;;;;;;30.83;23.98;;;3.80;99.90;;;;;;5100497;28;20373;-51
2022/12/09 06:57:31;;;;;;;25.90;22.48;;;3.80;99.90;;;;;;5099554;28;20864;-50
2022/12/09 06:59:56;;;;;;;23.40;20.90;;;3.90;99.90;;;;;;5099207;28;20694;-51
2022/12/09 07:02:22;;;;;;;24.27;21.77;;;3.90;99.90;;;;;;5098193;28;20184;-58
2022/12/09 07:04:52;;;;;;;24.93;22.30;;;3.90;99.90;;;;;;5099562;28;20597;-51
2022/12/09 07:07:18;;;;;;;24.63;21.88;;;3.90;99.90;;;;;;5099613;28;20515;-52
2022/12/09 07:09:43;;;;;;;26.70;23.93;;;3.90;99.90;;;;;;5097750;28;20179;-51
2022/12/09 07:12:09;;;;;;;24.93;21.90;;;3.90;99.90;;;;;;5098008;28;20250;-50
2022/12/09 07:14:35;;;;;;;25.07;22.27;;;3.90;99.90;;;;;;5094633;28;20290;-54
2022/12/09 07:17:01;;;;;;;24.17;21.50;;;3.90;99.90;;;;;;5094478;28;20223;-56
2022/12/09 07:19:28;;;;;;;27.75;23.10;;;3.90;99.90;;;;;;5098844;28;20544;-52
2022/12/09 07:21:54;;;;;;;24.95;22.05;;;4.00;99.90;;;;;;5098857;28;20676;-57
2022/12/09 07:24:23;;;;;;;24.83;22.27;;;3.90;99.90;;;;;;5096841;28;20187;-54
2022/12/09 07:26:49;;;;;;;26.67;23.98;;;4.00;99.90;;;;;;5097009;28;20191;-59
2022/12/09 07:29:17;;;;;;;24.15;21.52;;;4.00;99.90;;;;;;5095878;28;20853;-54
2022/12/09 07:31:43;;;;;;;23.70;21.20;;;4.00;99.90;;;;;;5097114;28;20270;-52
2022/12/09 07:34:10;;;;;;;25.13;21.48;;;4.00;99.90;;;;;;5097813;28;20566;-51
2022/12/09 07:36:36;;;;;;;25.20;22.50;;;4.00;99.90;;;;;;5097876;28;20806;-52
2022/12/09 07:39:13;;;;;;;24.58;22.00;;;4.00;99.90;;;;;;5095658;28;20184;-53
2022/12/09 07:41:40;;;;;;;24.23;21.17;;;4.10;99.90;;;;;;5099155;28;20172;-50
2022/12/09 07:44:06;;;;;;;25.75;22.80;;;4.10;99.90;;;;;;5098608;28;20772;-49
2022/12/09 07:46:31;;;;;;;27.33;24.33;;;4.10;99.90;;;;;;5100077;28;20179;-49
2022/12/09 07:48:57;;;;;;;29.50;26.07;;;4.10;99.90;;;;;;5099493;28;21321;-54
2022/12/09 07:51:24;;;;;;;28.15;25.20;;;4.20;99.90;;;;;;5097831;28;20183;-53
2022/12/09 07:53:50;;;;;;;25.48;22.88;;;4.10;99.90;;;;;;5095665;28;20216;-52
2022/12/09 07:56:17;;;;;;;25.65;22.90;;;4.00;99.90;;;;;;5098804;28;20179;-48
2022/12/09 07:58:46;;;;;;;25.85;22.38;;;4.00;99.90;;;;;;5096921;28;20191;-50
2022/12/09 08:01:14;;;;;;;27.45;22.67;;;4.00;99.90;;;;;;5090122;28;20568;-50
2022/12/09 08:03:40;;;;;;;24.73;22.08;;;3.90;99.90;;;;;;5086648;28;20219;-50
2022/12/09 08:06:07;;;;;;;25.27;22.50;;;4.10;99.90;;;;;;5090711;28;20729;-49
2022/12/09 08:08:33;;;;;;;24.75;22.15;;;4.20;99.90;;;;;;5096859;28;21087;-48
2022/12/09 08:11:12;;;;;;;26.38;22.70;;;4.30;99.90;;;;;;5091602;28;20219;-46
2022/12/09 08:13:38;;;;;;;24.27;21.90;;;4.30;99.90;;;;;;5096275;28;20636;-49
2022/12/09 08:16:05;;;;;;;23.40;21.00;;;4.20;99.90;;;;;;5098106;28;20231;-51
2022/12/09 08:18:32;;;;;;;23.83;21.52;;;4.30;99.90;;;;;;5096222;28;20287;-51
2022/12/09 08:21:01;;;;;;;24.58;21.65;;;4.30;99.90;;;;;;5095683;28;20180;-47
2022/12/09 08:23:27;;;;;;;25.13;22.60;;;4.30;99.90;;;;;;5085706;28;20225;-49
2022/12/09 08:25:54;;;;;;;23.70;21.30;;;4.30;99.90;;;;;;5097209;28;20548;-52
2022/12/09 08:28:22;;;;;;;25.25;22.75;;;4.40;99.90;;;;;;5096418;28;20189;-53
2022/12/09 08:30:48;;;;;;;24.60;22.27;;;4.40;99.90;;;;;;5099596;28;20176;-54
2022/12/09 08:33:13;;;;;;;25.88;23.05;;;4.40;99.90;;;;;;5097520;28;20204;-51
2022/12/09 08:35:39;;;;;;;26.00;22.10;;;4.50;99.90;;;;;;5098786;28;20224;-47
2022/12/09 08:38:05;;;;;;;25.33;22.73;;;4.40;99.90;;;;;;5098475;28;20187;-47
2022/12/09 08:40:31;;;;;;;26.37;23.67;;;4.40;99.90;;;;;;5098484;28;20949;-51
2022/12/09 08:42:56;;;;;;;25.97;23.27;;;4.40;99.90;;;;;;5097633;28;20184;-49
2022/12/09 08:45:22;;;;;;;24.13;21.63;;;4.40;99.90;;;;;;5098767;28;20282;-51
2022/12/09 08:47:47;;;;;;;27.13;24.40;;;4.40;99.90;;;;;;5098214;28;20259;-51
2022/12/09 08:50:13;;;;;;;26.83;24.00;;;4.40;99.90;;;;;;5102248;28;20200;-49
2022/12/09 08:52:39;;;;;;;25.40;22.70;;;4.40;99.90;;;;;;5099606;28;20178;-51
2022/12/09 08:55:05;;;;;;;28.57;25.47;;;4.50;99.90;;;;;;5099712;28;20231;-50
2022/12/09 08:57:31;;;;;;;24.67;22.10;;;4.70;99.90;;;;;;5101156;28;20441;-52
2022/12/09 08:59:56;;;;;;;26.30;23.50;;;5.00;99.90;;;;;;5100868;28;20646;-51
2022/12/09 09:02:22;;;;;;;25.30;22.80;;;5.40;99.90;;;;;;5101491;28;20251;-49
2022/12/09 09:04:47;;;;;;;23.67;21.27;;;5.80;99.90;;;;;;5101889;28;20321;-49
2022/12/09 09:07:13;;;;;;;26.37;23.90;;;6.20;99.90;;;;;;5101182;28;20235;-53
2022/12/09 09:09:39;;;;;;;23.93;21.63;;;6.60;99.90;;;;;;5100661;28;20187;-52
2022/12/09 09:12:05;;;;;;;23.13;20.90;;;7.00;99.90;;;;;;5101892;28;20649;-48
2022/12/09 09:14:31;;;;;;;24.70;22.20;;;7.40;99.90;;;;;;5100622;28;20534;-56
2022/12/09 09:16:56;;;;;;;23.50;21.30;;;7.40;99.90;;;;;;5100949;28;20576;-49
2022/12/09 09:19:24;;;;;;;23.80;21.60;;;7.30;99.90;;;;;;5099609;28;20202;-52
2022/12/09 09:21:50;;;;;;;25.10;22.63;;;7.10;99.90;;;;;;5101415;28;21072;-58
2022/12/09 09:24:19;;;;;;;24.33;21.90;;;6.80;99.90;;;;;;5099755;28;20441;-49
2022/12/09 09:26:45;;;;;;;25.27;22.87;;;6.20;99.90;;;;;;5099848;28;20472;-55
2022/12/09 09:29:12;;;;;;;26.85;24.10;;;5.90;99.90;;;;;;5101010;28;20434;-51
2022/12/09 09:31:38;;;;;;;25.02;22.52;;;5.60;99.90;;;;;;5101154;28;20220;-49
2022/12/09 09:34:04;;;;;;;28.30;25.60;;;5.40;99.90;;;;;;5100478;28;20270;-55
2022/12/09 09:36:30;;;;;;;28.47;25.60;;;5.10;99.90;;;;;;5101316;28;20438;-54
2022/12/09 09:38:56;;;;;;;28.58;25.48;;;5.00;99.90;;;;;;5100943;28;20701;-53
2022/12/09 09:41:51;;;;;;;27.10;24.33;;;4.80;99.90;;;;;;5101221;28;20237;-50
2022/12/09 09:44:37;;;;;;;27.50;24.50;;;4.60;99.90;;;;;;5100368;28;20196;-51
2022/12/09 09:47:18;;;;;;;28.63;25.65;;;4.50;99.90;;;;;;5099321;28;20537;-52
2022/12/09 09:49:53;;;;;;;29.23;25.50;;;4.60;99.90;;;;;;5100962;28;20183;-50
2022/12/09 09:52:21;;;;;;;27.92;24.48;;;4.60;99.90;;;;;;5100849;28;20628;-50
2022/12/09 09:54:50;;;;;;;28.60;25.60;;;4.70;99.90;;;;;;5100674;28;20633;-53
2022/12/09 09:57:33;;;;;;;28.67;25.77;;;4.90;99.90;;;;;;5099465;28;20177;-54
2022/12/09 10:00:17;;;;;;;28.17;25.27;;;5.10;99.90;;;;;;5099048;28;20209;-51
2022/12/09 10:03:23;;;;;;;30.58;27.30;;;5.20;99.90;;;;;;5100057;28;20204;-51
2022/12/09 10:05:54;;;;;;;27.70;24.90;;;5.00;99.90;;;;;;5037887;28;20186;-54
2022/12/09 10:08:33;;;;;;;30.08;26.48;;;4.80;99.90;;;;;;5020601;28;20186;-53
2022/12/09 10:11:11;;;;;;;30.50;27.38;;;4.70;99.90;;;;;;5074499;28;20192;-54
2022/12/09 10:13:42;;;;;;;28.38;25.30;;;4.80;99.90;;;;;;5098614;28;20219;-53
2022/12/09 10:16:22;;;;;;;30.15;26.95;;;4.80;99.90;;;;;;5098866;28;20228;-50
2022/12/09 10:19:15;;;;;;;30.45;26.65;;;4.90;99.90;;;;;;5099724;28;20175;-52
2022/12/09 10:21:43;;;;;;;30.67;27.25;;;5.00;99.90;;;;;;5100108;28;20651;-53
2022/12/09 10:24:20;;;;;;;29.83;26.63;;;5.20;99.90;;;;;;5086617;28;20189;-55
2022/12/09 10:27:25;;;;;;;28.95;25.90;;;5.30;99.90;;;;;;5097375;28;20189;-50
2022/12/09 10:30:20;;;;;;;29.65;26.48;;;5.60;99.90;;;;;;5084253;28;20202;-59
2022/12/09 10:32:46;;;;;;;29.60;26.40;;;6.10;99.90;;;;;;5084876;28;20203;-51
2022/12/09 10:35:21;;;;;;;28.00;25.30;;;6.70;99.90;;;;;;5099137;28;20495;-54
2022/12/09 10:37:50;;;;;;;27.30;24.07;;;7.20;99.90;;;;;;5098846;28;20440;-54
2022/12/09 10:40:35;;;;;;;28.23;25.43;;;7.50;99.90;;;;;;5100495;28;20478;-54
2022/12/09 10:46:22;;;;;;;27.97;25.13;;;8.20;99.10;;;;;;5098159;28;20448;-52
2022/12/09 10:48:48;;;;;;;29.50;26.57;;;8.40;97.00;;;;;;5099058;28;20422;-53
2022/12/09 10:51:23;;;;;;;27.60;24.90;;;8.10;96.70;;;;;;5098505;28;20440;-50
2022/12/09 10:54:02;;;;;;;28.97;26.07;;;8.20;97.10;;;;;;5097914;28;20786;-53
2022/12/09 10:56:28;;;;;;;28.40;25.63;;;8.20;97.50;;;;;;5100423;28;20408;-55
2022/12/09 10:59:08;;;;;;;29.13;26.33;;;8.20;97.40;;;;;;5095421;28;20430;-55
2022/12/09 11:01:58;;;;;;;28.33;25.23;;;8.20;97.20;;;;;;5098238;28;20558;-59
2022/12/09 11:04:37;;;;;;;28.50;25.60;;;8.20;96.50;;;;;;5098775;28;20441;-56
2022/12/09 11:07:02;;;;;;;30.00;27.07;;;8.10;96.00;;;;;;5098971;28;20481;-52
2022/12/09 11:09:36;;;;;;;29.30;26.17;;;8.00;96.60;;;;;;5099171;28;21011;-55
2022/12/09 11:12:05;;;;;;;30.70;27.57;;;8.10;96.60;;;;;;5096264;28;20191;-55
2022/12/09 11:14:39;;;;;;;28.33;25.60;;;7.90;97.20;;;;;;5099303;28;21023;-53
2022/12/09 11:17:20;;;;;;;29.93;27.00;;;8.00;96.40;;;;;;5096851;28;20500;-52
2022/12/09 11:19:52;;;;;;;28.57;25.63;;;7.90;96.60;;;;;;5099412;28;20437;-48
2022/12/09 11:22:38;;;;;;;27.97;24.47;;;7.60;96.80;;;;;;5099259;28;20476;-52
2022/12/09 11:25:25;;;;;;;30.13;27.03;;;7.40;98.00;;;;;;5099493;28;20437;-52
2022/12/09 11:28:02;;;;;;;28.13;25.30;;;7.50;98.20;;;;;;5097891;28;20441;-52
2022/12/09 11:30:32;;;;;;;29.10;26.13;;;7.60;98.10;;;;;;5098740;28;20864;-54
2022/12/09 11:33:20;;;;;;;28.90;26.00;;;7.80;97.50;;;;;;5098646;28;20596;-53
2022/12/09 11:35:46;;;;;;;27.13;24.23;;;7.90;96.10;;;;;;5098387;28;20540;-53
2022/12/09 11:38:45;;;;;;;27.00;24.40;;;8.30;95.10;;;;;;5098774;28;20433;-53
2022/12/09 11:42:12;;;;;;;29.10;26.10;;;8.70;95.00;;;;;;5065169;28;20919;-53
2022/12/09 11:44:01;;;;;;;28.57;25.77;;;8.60;93.00;;;;;;5097671;28;20486;-53
2022/12/09 11:46:31;;;;;;;26.73;24.10;;;9.00;92.40;;;;;;5099580;28;20430;-50
2022/12/09 11:49:10;;;;;;;27.53;24.87;;;9.20;91.80;;;;;;5099715;28;20424;-54
2022/12/09 11:51:39;;;;;;;27.03;24.33;;;9.30;91.20;;;;;;5099329;28;20508;-54
2022/12/09 11:54:30;;;;;;;25.70;23.23;;;9.40;91.00;;;;;;5097391;28;20469;-54
2022/12/09 11:56:57;;;;;;;28.40;25.40;;;9.40;89.00;;;;;;5080781;28;20954;-53
2022/12/09 11:59:29;;;;;;;27.37;24.77;;;9.60;89.00;;;;;;5098996;28;20991;-53
2022/12/09 12:02:26;;;;;;;27.13;24.63;;;9.70;85.40;;;;;;5098021;28;20438;-53
2022/12/09 12:05:22;;;;;;;26.80;24.30;;;9.80;83.00;;;;;;5098344;28;20783;-55
2022/12/09 12:08:04;;;;;;;27.33;24.63;;;9.20;83.60;;;;;;5091188;28;20558;-51
2022/12/09 12:10:41;;;;;;;26.90;24.30;;;9.20;82.20;;;;;;5098245;28;20726;-49
2022/12/09 12:13:31;;;;;;;26.83;24.30;;;8.90;83.70;;;;;;5099041;28;20757;-51
2022/12/09 12:16:25;;;;;;;28.23;25.23;;;7.90;86.30;;;;;;5096832;28;20436;-55
2022/12/09 12:18:56;;;;;;;26.90;24.40;;;8.00;91.20;;;;;;5097850;28;20437;-54
2022/12/09 12:21:53;;;;;;;27.57;25.00;;;7.70;91.50;;;;;;5099293;28;20887;-57
2022/12/09 12:24:36;;;;;;;28.10;25.20;;;7.90;92.30;;;;;;5102567;28;20931;-55
2022/12/09 12:27:08;;;;;;;27.83;25.27;;;8.90;91.00;;;;;;5102837;28;20433;-52
2022/12/09 12:30:01;;;;;;;26.67;23.97;;;9.20;86.30;;;;;;5100695;28;20462;-55
2022/12/09 12:32:33;;;;;;;25.30;22.90;;;9.10;83.60;;;;;;5100824;28;22637;-54
2022/12/09 12:35:31;;;;;;;28.03;25.30;;;9.40;83.70;;;;;;5101229;28;20469;-50
2022/12/09 12:38:15;;;;;;;25.90;23.30;;;8.90;81.70;;;;;;5021246;28;20962;-54
2022/12/09 12:40:56;;;;;;;27.67;24.97;;;8.80;85.80;;;;;;5093931;28;20561;-53
2022/12/09 12:46:42;;;;;;;26.30;23.70;;;8.70;87.80;;;;;;5073284;28;20432;-51
2022/12/09 12:49:16;;;;;;;27.93;25.10;;;8.50;88.10;;;;;;5079974;28;20484;-51
2022/12/09 12:51:57;;;;;;;28.77;25.77;;;8.10;89.40;;;;;;5096369;28;20446;-49
2022/12/09 12:54:32;;;;;;;26.60;24.00;;;7.50;91.40;;;;;;5102675;28;20457;-52
2022/12/09 12:57:21;;;;;;;29.17;26.20;;;7.30;93.40;;;;;;5103105;28;20443;-50
2022/12/09 13:00:25;;;;;;;28.57;25.80;;;7.20;94.70;;;;;;5103084;28;20865;-52
2022/12/09 13:02:56;;;;;;;27.23;24.57;;;7.10;95.40;;;;;;5100361;28;20916;-53